Time;durP1;ratioP1;P1;durP2;ratioP2;P2;SDS_P1;SDS_P2;PMS_P1;PMS_P2;Temp;Humidity;BMP_temperature;BMP_pressure;BME280_temperature;BME280_humidity;BME280_pressure;Samples;Min_cycle;Max_cycle;Signal;HPM_P1;HPM_P2
2022/05/19 00:00:21;;;;;;;1.52;1.42;;;;;;;3.67;100.00;91852.25;5070416;28;20102;-66
2022/05/19 00:02:47;;;;;;;0.90;0.90;;;;;;;3.61;100.00;91847.94;5070460;28;20024;-65
2022/05/19 00:05:13;;;;;;;5.55;1.13;;;;;;;3.62;100.00;91854.78;5070386;28;20461;-65
2022/05/19 00:07:38;;;;;;;0.90;0.90;;;;;;;3.53;100.00;91854.44;5070185;28;20028;-65
2022/05/19 00:10:04;;;;;;;0.95;0.95;;;;;;;3.52;100.00;91862.56;5070302;28;20029;-65
2022/05/19 00:12:30;;;;;;;2.13;1.25;;;;;;;3.49;100.00;91863.84;5070334;28;20027;-65
2022/05/19 00:14:57;;;;;;;0.90;0.90;;;;;;;3.46;100.00;91863.50;5070422;28;20521;-65
2022/05/19 00:17:24;;;;;;;3.15;1.00;;;;;;;3.42;100.00;91867.66;5070310;28;20452;-66
2022/05/19 00:19:50;;;;;;;2.10;1.52;;;;;;;3.38;100.00;91861.31;5069561;28;20105;-65
2022/05/19 00:22:15;;;;;;;1.02;1.02;;;;;;;3.44;100.00;91865.59;5070617;28;20059;-65
2022/05/19 00:24:41;;;;;;;3.08;1.83;;;;;;;3.26;100.00;91851.69;5070304;28;20505;-65
2022/05/19 00:27:06;;;;;;;1.65;1.55;;;;;;;3.26;100.00;91859.56;5073024;28;20033;-66
2022/05/19 00:29:32;;;;;;;1.27;1.23;;;;;;;3.19;100.00;91861.56;5073812;28;20016;-66
2022/05/19 00:31:57;;;;;;;1.83;1.63;;;;;;;3.19;100.00;91852.91;5073882;28;20024;-65
2022/05/19 00:34:23;;;;;;;1.23;1.08;;;;;;;3.17;100.00;91866.28;5073821;28;20486;-65
2022/05/19 00:36:56;;;;;;;1.65;1.55;;;;;;;3.11;100.00;91855.91;5073711;28;20036;-65
2022/05/19 00:39:21;;;;;;;1.33;1.23;;;;;;;3.05;100.00;91857.69;5073709;28;20040;-65
2022/05/19 00:41:47;;;;;;;0.88;0.88;;;;;;;2.98;100.00;91857.81;5073612;28;20037;-65
2022/05/19 00:44:13;;;;;;;0.95;0.95;;;;;;;2.94;100.00;91864.59;5073707;28;20107;-65
2022/05/19 00:46:44;;;;;;;1.05;0.98;;;;;;;2.93;100.00;91863.00;5073535;28;20383;-65
2022/05/19 00:49:21;;;;;;;0.88;0.88;;;;;;;2.88;100.00;91864.78;5073402;28;20031;-65
2022/05/19 00:52:00;;;;;;;0.90;0.90;;;;;;;2.86;100.00;91867.66;5073375;28;20421;-65
2022/05/19 00:54:40;;;;;;;2.15;0.85;;;;;;;2.80;100.00;91865.16;5073357;28;20103;-65
2022/05/19 00:57:14;;;;;;;0.98;0.98;;;;;;;2.72;100.00;91865.56;5055395;28;20032;-66
2022/05/19 00:59:45;;;;;;;1.00;1.00;;;;;;;2.87;100.00;91868.44;5073360;28;20536;-65
2022/05/19 01:02:15;;;;;;;0.90;0.90;;;;;;;2.84;100.00;91874.16;5073323;28;20063;-64
2022/05/19 01:04:46;;;;;;;1.10;1.10;;;;;;;2.81;100.00;91866.75;5073268;28;20485;-64
2022/05/19 01:07:17;;;;;;;1.35;1.25;;;;;;;2.78;100.00;91867.22;5073399;28;20079;-64
2022/05/19 01:09:43;;;;;;;0.90;0.90;;;;;;;2.75;100.00;91870.34;5073171;28;20021;-64
2022/05/19 01:12:10;;;;;;;1.10;1.10;;;;;;;2.72;100.00;91869.00;5073183;28;20030;-64
2022/05/19 01:14:35;;;;;;;1.00;1.00;;;;;;;2.79;100.00;91874.06;5073096;28;20031;-64
2022/05/19 01:17:04;;;;;;;1.10;1.10;;;;;;;2.83;100.00;91872.56;5072971;28;20032;-64
2022/05/19 01:19:45;;;;;;;1.00;1.00;;;;;;;2.75;100.00;91851.94;5072827;28;20561;-64
2022/05/19 01:22:24;;;;;;;0.80;0.80;;;;;;;2.97;100.00;91879.09;5072962;28;20398;-64
2022/05/19 01:25:19;;;;;;;0.90;0.90;;;;;;;2.90;100.00;91873.22;5072913;28;20505;-64
2022/05/19 01:27:44;;;;;;;2.20;1.33;;;;;;;2.85;100.00;91865.25;5061430;28;20063;-65
2022/05/19 01:30:11;;;;;;;0.80;0.80;;;;;;;2.89;100.00;91863.75;5072571;28;20028;-65
2022/05/19 01:32:37;;;;;;;1.20;1.20;;;;;;;2.86;100.00;91862.38;5072643;28;20039;-65
2022/05/19 01:35:03;;;;;;;1.00;1.00;;;;;;;2.89;100.00;91876.88;5054527;28;20024;-65
2022/05/19 01:37:29;;;;;;;1.00;1.00;;;;;;;2.87;100.00;91863.19;5072491;28;20036;-65
2022/05/19 01:40:03;;;;;;;0.90;0.90;;;;;;;2.95;100.00;91875.91;5072679;28;20029;-65
2022/05/19 01:42:43;;;;;;;0.82;0.82;;;;;;;3.03;100.00;91878.16;5072569;28;20500;-65
2022/05/19 01:45:39;;;;;;;1.52;1.42;;;;;;;2.96;100.00;91872.25;5072548;28;20486;-65
2022/05/19 01:48:18;;;;;;;1.00;1.00;;;;;;;2.99;100.00;91879.66;5072248;28;20097;-65
2022/05/19 01:51:21;;;;;;;1.23;0.98;;;;;;;3.02;100.00;91873.94;5072424;28;20086;-65
2022/05/19 01:53:54;;;;;;;0.90;0.90;;;;;;;3.03;100.00;91872.09;5033036;28;20033;-65
2022/05/19 01:56:25;;;;;;;;;;;;;;;2.99;100.00;91867.31;5072657;28;20067;-66
2022/05/19 01:59:28;;;;;;;0.82;0.82;;;;;;;3.03;100.00;91872.91;5072210;28;19915;-65
2022/05/19 02:02:04;;;;;;;3.20;1.95;;;;;;;3.06;100.00;91871.63;5033206;28;20032;-65
2022/05/19 02:04:49;;;;;;;4.45;1.25;;;;;;;3.17;100.00;91870.75;5072083;28;20429;-65
2022/05/19 02:07:17;;;;;;;0.90;0.90;;;;;;;3.16;100.00;91869.94;5072241;28;20421;-65
2022/05/19 02:09:53;;;;;;;1.27;1.23;;;;;;;3.15;100.00;91865.69;5072133;28;20028;-65
2022/05/19 02:12:20;;;;;;;1.15;1.08;;;;;;;3.14;100.00;91874.63;5071842;28;20816;-65
2022/05/19 02:14:50;;;;;;;0.80;0.80;;;;;;;3.08;100.00;91872.97;5071907;28;20093;-65
2022/05/19 02:17:20;;;;;;;1.38;1.27;;;;;;;3.10;100.00;91868.25;5071762;28;20504;-65
2022/05/19 02:19:51;;;;;;;6.43;1.02;;;;;;;3.11;100.00;91883.00;5071613;28;20040;-65
2022/05/19 02:22:19;;;;;;;2.15;1.33;;;;;;;2.82;100.00;91876.22;5071831;28;20032;-65
2022/05/19 02:24:56;;;;;;;1.23;1.23;;;;;;;2.66;100.00;91875.97;5071624;28;20024;-65
2022/05/19 02:27:32;;;;;;;1.10;1.10;;;;;;;2.81;100.00;91879.88;5071589;28;20623;-65
2022/05/19 02:30:00;;;;;;;1.00;1.00;;;;;;;2.91;100.00;91891.38;5053647;28;20391;-65
2022/05/19 02:32:26;;;;;;;1.27;1.20;;;;;;;3.00;100.00;91889.16;5071604;28;20032;-65
2022/05/19 02:34:51;;;;;;;1.20;1.10;;;;;;;2.88;100.00;91889.22;5053610;28;20032;-65
2022/05/19 02:37:17;;;;;;;1.92;1.50;;;;;;;2.63;100.00;91900.09;5071459;28;20111;-65
2022/05/19 02:39:42;;;;;;;1.20;1.20;;;;;;;2.54;100.00;91883.13;5071540;28;20031;-65
2022/05/19 02:42:08;;;;;;;0.77;0.77;;;;;;;2.54;100.00;91892.84;5071512;28;20028;-65
2022/05/19 02:44:33;;;;;;;2.20;1.33;;;;;;;2.74;100.00;91900.28;5071386;28;20033;-65
2022/05/19 02:46:59;;;;;;;1.00;1.00;;;;;;;2.72;100.00;91904.97;5071369;28;20039;-65
2022/05/19 02:49:24;;;;;;;0.80;0.80;;;;;;;2.79;100.00;91901.16;5070921;28;20025;-65
2022/05/19 02:51:50;;;;;;;0.88;0.88;;;;;;;2.83;100.00;91904.88;5071256;28;20094;-65
2022/05/19 02:54:20;;;;;;;1.83;1.58;;;;;;;2.88;100.00;91897.09;5071316;28;20051;-65
2022/05/19 02:56:47;;;;;;;1.30;1.20;;;;;;;2.85;100.00;91902.84;5071229;28;20486;-65
2022/05/19 02:59:12;;;;;;;1.13;1.10;;;;;;;2.64;100.00;91906.94;5071288;28;20028;-65
2022/05/19 03:01:38;;;;;;;1.20;1.10;;;;;;;2.53;100.00;91907.81;5071264;28;20559;-65
2022/05/19 03:04:03;;;;;;;1.10;1.10;;;;;;;2.33;100.00;91905.59;5071167;28;20126;-65
2022/05/19 03:06:29;;;;;;;0.90;0.90;;;;;;;2.19;100.00;91903.47;5071083;28;20051;-65
2022/05/19 03:08:54;;;;;;;0.95;0.95;;;;;;;2.06;100.00;91908.00;5071254;28;20032;-64
2022/05/19 03:11:19;;;;;;;1.00;0.95;;;;;;;1.95;100.00;91914.06;5071131;28;20024;-65
2022/05/19 03:13:45;;;;;;;1.23;1.23;;;;;;;1.89;100.00;91919.41;5071026;28;20029;-65
2022/05/19 03:16:10;;;;;;;1.80;1.45;;;;;;;2.06;100.00;91913.25;5070981;28;20553;-65
2022/05/19 03:18:36;;;;;;;1.70;1.38;;;;;;;2.07;100.00;91917.47;5070941;28;20077;-65
2022/05/19 03:21:01;;;;;;;1.33;1.23;;;;;;;2.01;100.00;91923.63;5052948;28;20046;-65
2022/05/19 03:23:27;;;;;;;1.27;1.20;;;;;;;1.97;100.00;91919.88;5070973;28;20021;-65
2022/05/19 03:25:54;;;;;;;1.02;1.02;;;;;;;1.82;100.00;91921.38;5215566;22;20056;-64
2022/05/19 03:28:19;;;;;;;1.40;1.30;;;;;;;1.93;100.00;91915.31;5050838;28;21912;-63
2022/05/19 03:30:45;;;;;;;1.85;1.55;;;;;;;1.87;100.00;91924.91;5051207;28;20063;-63
2022/05/19 03:33:10;;;;;;;3.72;1.88;;;;;;;1.91;100.00;91915.56;5050950;28;21181;-63
2022/05/19 03:35:36;;;;;;;2.03;1.25;;;;;;;2.13;100.00;91922.78;5050692;28;20029;-64
2022/05/19 03:38:01;;;;;;;2.40;1.13;;;;;;;2.19;100.00;91925.28;5050941;28;20512;-64
2022/05/19 03:40:27;;;;;;;1.80;1.70;;;;;;;2.26;100.00;91925.94;5050839;28;20024;-63
2022/05/19 03:42:53;;;;;;;1.50;1.40;;;;;;;2.29;100.00;91929.94;5050779;28;20517;-64
2022/05/19 03:45:18;;;;;;;2.22;1.30;;;;;;;2.31;100.00;91928.66;5050402;28;20029;-64
2022/05/19 03:47:44;;;;;;;2.00;1.20;;;;;;;2.34;100.00;91927.41;5050761;28;20029;-63
2022/05/19 03:50:10;;;;;;;1.02;1.02;;;;;;;2.43;100.00;91933.88;5050667;28;20029;-64
2022/05/19 03:52:38;;;;;;;1.00;1.00;;;;;;;2.58;100.00;91928.09;5050459;28;20036;-64
2022/05/19 03:55:04;;;;;;;1.10;1.10;;;;;;;2.84;100.00;91939.84;5050582;28;20032;-63
2022/05/19 03:57:29;;;;;;;1.10;1.10;;;;;;;2.96;100.00;91935.31;5050694;28;20029;-63
2022/05/19 03:59:55;;;;;;;0.90;0.90;;;;;;;3.07;100.00;91942.34;5050770;28;20100;-64
2022/05/19 04:02:20;;;;;;;1.95;1.80;;;;;;;3.20;100.00;91941.25;5053928;28;20032;-63
2022/05/19 04:04:46;;;;;;;1.10;1.00;;;;;;;3.30;100.00;91936.13;5054463;28;20025;-64
2022/05/19 04:07:11;;;;;;;1.13;1.13;;;;;;;3.40;100.00;91938.13;5054386;28;20036;-64
2022/05/19 04:09:37;;;;;;;1.02;1.02;;;;;;;3.48;100.00;91938.53;5054377;28;20518;-64
2022/05/19 04:12:03;;;;;;;1.30;1.23;;;;;;;3.57;100.00;91936.28;5054381;28;20025;-64
2022/05/19 04:14:28;;;;;;;1.15;1.08;;;;;;;3.65;100.00;91937.72;5054292;28;20474;-63
2022/05/19 04:16:53;;;;;;;0.90;0.90;;;;;;;3.66;100.00;91940.09;5053968;28;20025;-63
2022/05/19 04:19:19;;;;;;;1.50;1.40;;;;;;;3.71;100.00;91927.00;5054116;28;20040;-63
2022/05/19 04:21:45;;;;;;;1.10;1.10;;;;;;;3.76;100.00;91940.22;5054008;28;20047;-64
2022/05/19 04:24:14;;;;;;;2.58;1.40;;;;;;;3.82;100.00;91939.28;5053921;28;20033;-63
2022/05/19 04:26:40;;;;;;;1.42;1.33;;;;;;;3.80;100.00;91951.91;5053507;28;20595;-63
2022/05/19 04:29:05;;;;;;;1.20;1.20;;;;;;;3.84;100.00;91950.38;5053697;28;20024;-63
2022/05/19 04:31:31;;;;;;;1.20;1.13;;;;;;;3.97;100.00;91961.59;5053808;28;20036;-63
2022/05/19 04:33:57;;;;;;;1.00;1.00;;;;;;;4.03;100.00;91957.97;5054023;28;20032;-65
2022/05/19 04:36:22;;;;;;;1.98;1.70;;;;;;;4.12;100.00;91959.16;5053646;28;20029;-64
2022/05/19 04:38:48;;;;;;;1.52;1.42;;;;;;;4.11;100.00;91954.94;5053790;28;20503;-64
2022/05/19 04:41:13;;;;;;;1.30;1.20;;;;;;;4.21;100.00;91958.47;5053952;28;20565;-64
2022/05/19 04:43:39;;;;;;;1.70;1.60;;;;;;;4.24;100.00;91940.59;5053771;28;20039;-64
2022/05/19 04:46:04;;;;;;;11.30;1.80;;;;;;;4.46;100.00;91958.00;5053628;28;20033;-64
2022/05/19 04:48:29;;;;;;;1.95;1.70;;;;;;;4.49;100.00;91954.06;5053587;28;20127;-64
2022/05/19 04:50:57;;;;;;;2.08;1.88;;;;;;;4.59;100.00;91963.94;5053535;28;20123;-64
2022/05/19 04:53:24;;;;;;;1.13;1.13;;;;;;;4.67;100.00;91966.13;5053520;28;20044;-64
2022/05/19 04:55:49;;;;;;;1.63;1.38;;;;;;;4.72;100.00;91964.34;5035401;28;20040;-64
2022/05/19 04:58:15;;;;;;;1.38;1.27;;;;;;;4.86;100.00;91961.31;5053483;28;20017;-64
2022/05/19 05:00:40;;;;;;;1.77;1.52;;;;;;;4.88;100.00;91967.94;5053328;28;20033;-64
2022/05/19 05:03:06;;;;;;;8.43;1.60;;;;;;;5.04;100.00;91964.41;5053311;28;20036;-64
2022/05/19 05:05:32;;;;;;;1.92;1.83;;;;;;;5.18;100.00;91964.00;5053199;28;20037;-64
2022/05/19 05:07:58;;;;;;;3.75;1.45;;;;;;;5.36;100.00;91959.13;5053198;28;20029;-65
2022/05/19 05:10:24;;;;;;;1.83;1.73;;;;;;;5.42;100.00;91957.34;5053312;28;20029;-65
2022/05/19 05:12:49;;;;;;;1.45;1.38;;;;;;;5.56;100.00;91952.47;5052775;28;20035;-65
2022/05/19 05:15:15;;;;;;;1.73;1.50;;;;;;;5.71;100.00;91950.72;5053027;28;20433;-65
2022/05/19 05:17:41;;;;;;;3.17;1.70;;;;;;;5.87;100.00;91958.75;5053037;28;20017;-65
2022/05/19 05:20:08;;;;;;;2.30;2.10;;;;;;;6.03;100.00;91959.66;5053022;28;20094;-65
2022/05/19 05:22:35;;;;;;;2.35;1.63;;;;;;;6.26;100.00;91957.41;5053006;28;20033;-64
2022/05/19 05:25:06;;;;;;;1.73;1.60;;;;;;;7.25;100.00;91952.97;5052857;28;20088;-64
2022/05/19 05:27:31;;;;;;;1.40;1.30;;;;;;;11.27;100.00;91953.28;5053021;28;20521;-64
2022/05/19 05:29:57;;;;;;;2.17;1.98;;;;;;;14.16;84.12;91954.28;5052926;28;20075;-65
2022/05/19 05:32:22;;;;;;;1.63;1.52;;;;;;;15.89;69.93;91961.13;5052937;28;20112;-65
2022/05/19 05:34:48;;;;;;;1.88;1.77;;;;;;;18.54;58.78;91960.63;5052579;28;20029;-65
2022/05/19 05:37:13;;;;;;;1.65;1.50;;;;;;;20.78;51.63;91964.94;5052856;28;20017;-65
2022/05/19 05:39:39;;;;;;;5.40;1.67;;;;;;;21.07;49.38;91955.66;5052772;28;20470;-63
2022/05/19 05:42:05;;;;;;;2.55;1.63;;;;;;;21.78;46.84;91967.47;5052724;28;20032;-64
2022/05/19 05:44:31;;;;;;;4.43;1.83;;;;;;;23.11;44.71;91969.88;5052708;28;20029;-64
2022/05/19 05:46:56;;;;;;;1.50;1.38;;;;;;;24.37;42.15;91966.13;5052483;28;20102;-64
2022/05/19 05:49:22;;;;;;;1.65;1.50;;;;;;;25.28;40.34;91970.34;5052542;28;20037;-65
2022/05/19 05:51:48;;;;;;;6.35;1.85;;;;;;;25.91;38.79;91977.56;5052543;28;20028;-65
2022/05/19 05:54:14;;;;;;;5.40;1.30;;;;;;;27.03;36.96;91985.28;5052585;28;20021;-65
2022/05/19 05:56:39;;;;;;;2.03;1.58;;;;;;;26.60;36.88;91987.00;5052326;28;20036;-65
2022/05/19 05:59:05;;;;;;;2.53;1.75;;;;;;;26.28;37.58;91982.88;5052441;28;20021;-64
2022/05/19 06:01:30;;;;;;;1.92;1.75;;;;;;;26.12;37.22;91979.66;5052375;28;20110;-65
2022/05/19 06:03:56;;;;;;;3.65;1.80;;;;;;;25.73;36.92;91982.09;5052416;28;20402;-64
2022/05/19 06:06:21;;;;;;;10.00;2.40;;;;;;;25.28;36.09;91985.91;5052242;28;20024;-65
2022/05/19 06:08:46;;;;;;;7.70;1.83;;;;;;;27.24;35.62;91981.81;5052127;28;20029;-65
2022/05/19 06:11:13;;;;;;;2.00;1.77;;;;;;;27.13;34.27;91985.28;5052253;28;20032;-65
2022/05/19 06:13:39;;;;;;;2.00;1.80;;;;;;;26.17;35.73;91983.97;5050506;28;20049;-64
2022/05/19 06:16:05;;;;;;;1.80;1.70;;;;;;;27.06;35.39;91985.28;5051950;28;20025;-64
2022/05/19 06:18:31;;;;;;;4.75;2.30;;;;;;;27.28;34.90;91988.84;5052128;28;20025;-64
2022/05/19 06:20:56;;;;;;;2.22;1.80;;;;;;;29.20;33.21;91988.81;5051954;28;20021;-63
2022/05/19 06:23:22;;;;;;;4.10;1.95;;;;;;;29.36;32.77;91988.34;5051088;28;20063;-63
2022/05/19 06:25:47;;;;;;;5.85;1.95;;;;;;;28.72;33.22;91990.50;5051603;28;20045;-63
2022/05/19 06:28:14;;;;;;;4.25;1.95;;;;;;;26.92;36.15;91990.66;5051740;28;20082;-63
2022/05/19 06:30:40;;;;;;;6.32;2.70;;;;;;;25.10;36.53;91985.72;5051745;28;20490;-63
2022/05/19 06:33:06;;;;;;;7.10;2.85;;;;;;;21.65;40.97;91991.16;5051661;28;20082;-63
2022/05/19 06:35:33;;;;;;;6.35;2.92;;;;;;;22.70;42.37;91988.44;5051571;28;20028;-63
2022/05/19 06:37:59;;;;;;;9.60;2.80;;;;;;;23.95;40.02;91987.22;5051671;28;20029;-62
2022/05/19 06:40:26;;;;;;;2.33;1.75;;;;;;;25.92;38.08;91987.31;5051622;28;20037;-63
2022/05/19 06:42:53;;;;;;;3.47;2.33;;;;;;;24.45;39.70;91983.31;5051789;28;20056;-62
2022/05/19 06:45:22;;;;;;;14.95;3.00;;;;;;;23.24;44.90;91982.16;5051750;28;20051;-62
2022/05/19 06:47:48;;;;;;;4.65;2.17;;;;;;;23.09;42.53;91966.75;5051540;28;20513;-62
2022/05/19 06:50:14;;;;;;;11.07;2.30;;;;;;;23.93;42.48;91981.38;5051403;28;20044;-63
2022/05/19 06:53:03;;;;;;;3.17;1.65;;;;;;;26.91;36.09;91985.59;5051466;28;20033;-63
2022/05/19 06:55:31;;;;;;;13.18;2.60;;;;;;;26.72;37.46;91990.19;5051248;28;20071;-62
2022/05/19 06:57:57;;;;;;;4.85;1.90;;;;;;;25.71;34.69;91992.56;5033073;28;20037;-63
2022/05/19 07:00:26;;;;;;;10.20;3.08;;;;;;;23.95;38.10;91993.44;5041276;28;20507;-64
2022/05/19 07:02:56;;;;;;;3.05;1.60;;;;;;;23.02;39.61;91983.69;5031241;28;20033;-63
2022/05/19 07:05:24;;;;;;;2.83;1.65;;;;;;;22.90;40.47;91989.28;5031099;28;20037;-63
2022/05/19 07:07:50;;;;;;;5.57;1.98;;;;;;;23.12;39.69;91984.25;5029773;28;20076;-63
2022/05/19 07:10:19;;;;;;;2.15;1.95;;;;;;;24.99;36.88;91995.66;5031215;28;20068;-63
2022/05/19 07:12:44;;;;;;;5.97;3.35;;;;;;;26.36;35.53;92004.81;5031208;28;20180;-64
2022/05/19 07:15:12;;;;;;;3.63;1.38;;;;;;;27.58;31.92;91995.94;5030908;28;20112;-64
2022/05/19 07:17:38;;;;;;;6.45;1.30;;;;;;;26.73;35.00;91999.16;5030957;28;20455;-64
2022/05/19 07:22:49;;;;;;;2.92;1.77;;;;;;;25.94;33.86;92006.00;5031434;28;20043;-64
2022/05/19 07:25:15;;;;;;;1.45;1.27;;;;;;;25.90;33.73;92008.72;5030953;28;20033;-64
2022/05/19 07:27:41;;;;;;;7.55;3.20;;;;;;;26.07;31.85;92014.69;5031207;28;20060;-64
2022/05/19 07:30:07;;;;;;;13.07;1.50;;;;;;;26.03;30.59;92002.94;5031044;28;20404;-63
2022/05/19 07:32:33;;;;;;;2.17;1.23;;;;;;;25.89;29.99;92006.38;5040144;28;20021;-63
2022/05/19 07:34:59;;;;;;;6.95;1.80;;;;;;;24.83;31.90;91997.81;5033690;28;20040;-63
2022/05/19 07:37:25;;;;;;;2.35;1.20;;;;;;;23.54;33.86;92003.25;5055192;28;20044;-63
2022/05/19 07:39:52;;;;;;;2.13;1.58;;;;;;;24.36;31.92;92012.72;5055028;28;20154;-64
2022/05/19 07:42:17;;;;;;;2.35;1.23;;;;;;;25.34;31.73;92008.91;5055040;28;20501;-63
2022/05/19 07:44:43;;;;;;;33.17;4.38;;;;;;;26.17;30.05;92009.28;5054820;28;20024;-64
2022/05/19 07:47:09;;;;;;;1.80;1.23;;;;;;;28.21;28.09;92013.63;5054949;28;20059;-64
2022/05/19 07:49:34;;;;;;;1.63;1.20;;;;;;;27.19;30.81;92026.69;5054724;28;20035;-64
2022/05/19 07:52:00;;;;;;;2.22;1.70;;;;;;;24.22;31.75;92020.66;5054803;28;20517;-64
2022/05/19 07:54:27;;;;;;;2.08;1.88;;;;;;;23.31;31.56;92020.28;5036902;28;20032;-63
2022/05/19 07:56:53;;;;;;;1.17;1.08;;;;;;;24.02;35.65;92025.41;5054695;28;20170;-64
2022/05/19 07:59:20;;;;;;;2.97;1.23;;;;;;;24.46;33.55;92028.44;5054661;28;20027;-64
2022/05/19 08:01:46;;;;;;;1.38;1.23;;;;;;;25.50;29.17;92027.75;5054744;28;20104;-64
2022/05/19 08:04:12;;;;;;;6.82;1.10;;;;;;;29.66;26.46;92030.91;5054611;28;20035;-62
2022/05/19 08:06:39;;;;;;;1.40;1.20;;;;;;;28.48;29.63;92024.97;5054561;28;20033;-63
2022/05/19 08:10:20;;;;;;;1.10;1.00;;;;;;;25.46;32.46;92029.69;5054490;28;20063;-63
2022/05/19 08:11:52;;;;;;;1.00;1.00;;;;;;;24.28;31.77;92021.91;5054292;28;20051;-62
2022/05/19 08:17:04;;;;;;;1.75;1.65;;;;;;;24.99;32.83;92033.78;5054673;28;20043;-62
2022/05/19 08:19:30;;;;;;;1.50;1.27;;;;;;;23.78;32.82;92032.00;5054301;28;20477;-64
2022/05/19 08:21:56;;;;;;;5.97;1.70;;;;;;;25.57;33.74;92038.75;5054289;28;20056;-64
2022/05/19 08:24:24;;;;;;;1.40;1.30;;;;;;;27.19;31.14;92034.13;5054236;28;20029;-63
2022/05/19 08:26:52;;;;;;;12.55;2.30;;;;;;;25.29;31.55;92036.50;5053970;28;20562;-65
2022/05/19 08:29:19;;;;;;;1.60;1.02;;;;;;;23.78;33.19;92038.22;5053996;28;20028;-64
2022/05/19 08:31:45;;;;;;;4.47;1.65;;;;;;;24.35;32.19;92032.94;5054082;28;20060;-63
2022/05/19 08:34:13;;;;;;;1.65;1.20;;;;;;;23.89;29.77;92038.41;5048155;28;20410;-65
2022/05/19 08:36:40;;;;;;;8.18;2.00;;;;;;;22.77;33.07;92033.16;5033638;28;20029;-63
2022/05/19 08:39:05;;;;;;;3.83;2.05;;;;;;;25.76;31.01;92024.94;5033508;28;20525;-64
2022/05/19 08:41:36;;;;;;;2.15;1.80;;;;;;;26.75;28.75;92040.50;5033756;28;20033;-64
2022/05/19 08:44:14;;;;;;;3.70;2.25;;;;;;;27.77;28.71;92027.66;5033720;28;20506;-65
2022/05/19 08:46:43;;;;;;;3.00;1.40;;;;;;;27.23;29.86;92041.16;5033119;28;20064;-64
2022/05/19 08:49:15;;;;;;;17.23;4.25;;;;;;;27.14;28.79;92032.53;5033785;28;20406;-64
2022/05/19 08:52:07;;;;;;;4.75;1.25;;;;;;;26.67;28.82;92028.78;5033991;28;20120;-64
2022/05/19 08:54:34;;;;;;;1.75;1.30;;;;;;;24.08;31.68;92024.72;5032894;28;20036;-65
2022/05/19 08:57:12;;;;;;;6.22;2.25;;;;;;;25.39;29.83;92017.53;5015692;28;20099;-66
2022/05/19 08:59:46;;;;;;;1.30;1.20;;;;;;;25.12;32.73;92028.91;5033284;28;20036;-65
2022/05/19 09:02:19;;;;;;;3.38;1.70;;;;;;;23.49;32.20;92028.75;5033357;28;20041;-65
2022/05/19 09:04:54;;;;;;;1.30;1.20;;;;;;;23.66;31.63;92032.94;5033199;28;20034;-65
2022/05/19 09:10:22;;;;;;;8.32;4.15;;;;;;;26.19;31.49;92034.25;5053179;28;20072;-65
2022/05/19 09:13:06;;;;;;;3.83;1.70;;;;;;;23.75;33.93;92024.56;5053031;28;20112;-65
2022/05/19 09:15:33;;;;;;;1.20;1.10;;;;;;;26.70;29.75;92024.50;5052968;28;20039;-66
2022/05/19 09:17:59;;;;;;;1.70;0.90;;;;;;;29.93;27.00;92018.19;5052992;28;20505;-65
2022/05/19 09:20:44;;;;;;;5.43;1.40;;;;;;;31.42;24.37;92020.78;5053032;28;20033;-67
2022/05/19 09:23:10;;;;;;;7.45;1.30;;;;;;;32.05;24.15;92018.41;5052531;28;20082;-64
2022/05/19 09:25:42;;;;;;;1.13;1.05;;;;;;;31.34;25.32;92017.34;5052583;28;20049;-65
2022/05/19 09:28:11;;;;;;;2.60;1.20;;;;;;;28.83;28.69;92008.47;5052869;28;20492;-65
2022/05/19 09:30:53;;;;;;;2.55;1.05;;;;;;;30.05;26.74;92009.53;5052974;28;20033;-65
2022/05/19 09:33:39;;;;;;;1.30;1.20;;;;;;;28.53;27.94;92014.41;5052978;28;20041;-65
2022/05/19 09:36:11;;;;;;;1.33;1.23;;;;;;;28.19;27.96;92000.31;5052707;28;20024;-65
2022/05/19 09:38:44;;;;;;;3.03;1.50;;;;;;;27.96;25.98;92002.69;5052169;28;20037;-67
2022/05/19 09:41:24;;;;;;;1.00;0.90;;;;;;;26.96;29.49;92007.84;5052676;28;20490;-66
2022/05/19 09:43:53;;;;;;;2.83;1.30;;;;;;;25.80;31.65;92006.66;5052715;28;20565;-65
2022/05/19 09:46:19;;;;;;;2.38;1.50;;;;;;;26.14;29.91;92007.31;5052568;28;20096;-66
2022/05/19 09:48:57;;;;;;;2.10;1.50;;;;;;;27.71;30.36;92000.69;5052315;28;20400;-67
2022/05/19 09:51:31;;;;;;;8.65;2.67;;;;;;;26.01;29.12;91999.81;5052295;28;20036;-67
2022/05/19 09:53:59;;;;;;;1.40;1.25;;;;;;;22.54;32.42;91985.03;5051886;28;20107;-67
2022/05/19 09:56:37;;;;;;;3.20;1.40;;;;;;;22.02;34.57;91991.63;5052196;28;20040;-67
2022/05/19 09:59:11;;;;;;;5.80;1.40;;;;;;;22.39;32.73;91985.88;5051087;28;20033;-67
2022/05/19 10:01:47;;;;;;;2.20;1.25;;;;;;;21.68;33.61;91990.44;5052101;28;20032;-67
2022/05/19 10:04:25;;;;;;;1.50;1.13;;;;;;;23.85;31.05;91984.00;5051888;28;20032;-65
2022/05/19 10:06:57;;;;;;;2.67;1.35;;;;;;;25.15;29.35;91987.31;5051685;28;20090;-66
2022/05/19 10:09:29;;;;;;;3.25;2.15;;;;;;;25.97;30.33;91988.88;5052001;28;20017;-66
2022/05/19 10:12:09;;;;;;;1.23;1.13;;;;;;;27.75;28.21;91974.13;5051598;28;20503;-67
2022/05/19 10:14:35;;;;;;;2.35;1.15;;;;;;;26.10;29.06;91978.47;5051952;28;20461;-67
2022/05/19 10:17:25;;;;;;;7.57;4.40;;;;;;;26.08;30.49;91978.84;5051899;28;20031;-66
2022/05/19 10:20:23;;;;;;;1.58;1.17;;;;;;;26.22;29.10;91975.44;5051998;28;20083;-65
2022/05/19 10:23:03;;;;;;;1.45;1.25;;;;;;;25.26;28.56;91971.88;5051463;28;20585;-65
2022/05/19 10:25:50;;;;;;;2.15;1.70;;;;;;;26.69;29.39;91974.56;5051410;28;20057;-65
2022/05/19 10:31:35;;;;;;;1.52;1.40;;;;;;;24.20;31.89;91969.34;5052119;28;20118;-65
2022/05/19 10:34:41;;;;;;;1.95;1.10;;;;;;;23.65;31.25;91965.41;5051813;28;20056;-66
2022/05/19 10:37:25;;;;;;;1.50;1.40;;;;;;;25.63;28.97;91963.66;5048430;28;20123;-65
2022/05/19 10:40:08;;;;;;;4.93;1.35;;;;;;;26.21;29.14;91969.19;5051779;28;20063;-65
2022/05/19 10:42:40;;;;;;;1.98;1.30;;;;;;;25.16;29.45;91956.97;5051702;28;20203;-65
2022/05/19 10:45:25;;;;;;;3.95;1.42;;;;;;;25.38;30.10;91956.03;5051504;28;20057;-65
2022/05/19 10:48:49;;;;;;;8.02;1.30;;;;;;;27.13;27.71;91955.25;5051657;28;20033;-65
2022/05/19 10:51:52;;;;;;;3.00;1.60;;;;;;;24.84;29.16;91955.81;4970374;28;20047;-66
2022/05/19 10:54:39;;;;;;;5.15;1.70;;;;;;;22.14;33.11;91962.88;4970693;28;20042;-65
2022/05/19 10:58:15;;;;;;;1.65;1.50;;;;;;;22.57;31.62;91951.00;5051499;28;20051;-66
2022/05/19 11:01:12;;;;;;;8.52;1.80;;;;;;;22.97;33.35;91956.84;4933340;28;20475;-65
2022/05/19 11:04:09;;;;;;;1.55;1.38;;;;;;;21.11;30.42;91956.53;4963994;28;20643;-67
2022/05/19 11:06:52;;;;;;;5.22;1.85;;;;;;;24.71;29.64;91944.41;5051407;28;20073;-68
2022/05/19 11:09:27;;;;;;;1.90;1.40;;;;;;;25.62;28.56;91951.19;5050826;28;20024;-68
2022/05/19 11:12:06;;;;;;;3.30;2.03;;;;;;;26.09;28.18;91946.91;5051262;28;20037;-68
2022/05/19 11:14:53;;;;;;;8.30;2.45;;;;;;;25.63;28.37;91947.31;5051143;28;20108;-68
2022/05/19 11:17:48;;;;;;;1.58;1.48;;;;;;;26.76;26.75;91943.78;5051107;28;20380;-68
2022/05/19 11:20:28;;;;;;;1.30;1.20;;;;;;;25.67;27.47;91943.44;5051155;28;20060;-68
2022/05/19 11:23:07;;;;;;;1.70;1.40;;;;;;;25.54;29.22;91938.66;5051210;28;20056;-68
2022/05/19 11:28:40;;;;;;;3.03;2.00;;;;;;;26.90;28.84;91937.59;5050963;28;20044;-68
2022/05/19 11:31:20;;;;;;;2.95;1.70;;;;;;;25.30;27.79;91929.88;5051032;28;20048;-68
2022/05/19 11:33:50;;;;;;;1.65;1.50;;;;;;;22.22;30.79;91924.72;5050906;28;20036;-67
2022/05/19 11:36:36;;;;;;;5.85;2.00;;;;;;;23.42;31.60;91930.88;5050887;28;20045;-67
2022/05/19 11:39:10;;;;;;;4.72;2.45;;;;;;;23.89;31.29;91925.03;5051194;28;20120;-68
2022/05/19 11:41:37;;;;;;;2.30;1.60;;;;;;;21.71;31.79;91923.97;5050859;28;20036;-67
2022/05/19 11:44:12;;;;;;;2.63;1.60;;;;;;;20.67;33.40;91919.81;5050847;28;20033;-67
2022/05/19 11:46:48;;;;;;;2.97;1.40;;;;;;;20.50;33.75;91916.28;5050792;28;20071;-67
2022/05/19 11:55:24;;;;;;;14.73;2.47;;;;;;;23.48;29.79;91915.81;5050880;28;20044;-68
2022/05/19 11:58:00;;;;;;;5.20;3.45;;;;;;;23.32;32.41;91909.75;5050695;28;20045;-68
2022/05/19 12:00:55;;;;;;;5.00;1.30;;;;;;;23.25;30.36;91912.34;5050803;28;20041;-68
2022/05/19 12:03:45;;;;;;;5.35;1.15;;;;;;;24.74;31.13;91908.25;5050692;28;20047;-68
2022/05/19 12:06:12;;;;;;;2.65;1.10;;;;;;;25.06;27.16;91914.06;5050544;28;20043;-67
2022/05/19 12:09:00;;;;;;;4.70;1.45;;;;;;;25.85;30.08;91915.56;5050601;28;20080;-67
2022/05/19 12:11:44;;;;;;;1.70;1.38;;;;;;;27.12;27.18;91907.25;5022148;28;20427;-68